createdAt,value
2023-05-10T00:00:43.317Z,21.60
2023-05-10T00:03:09.854Z,20.05
2023-05-10T00:05:36.514Z,20.48
2023-05-10T00:08:02.999Z,19.53
2023-05-10T00:10:29.412Z,20.17
2023-05-10T00:12:55.985Z,20.48
2023-05-10T00:15:22.740Z,23.63
2023-05-10T00:17:49.454Z,24.20
2023-05-10T00:20:16.460Z,23.37
2023-05-10T00:22:43.150Z,22.10
2023-05-10T00:25:11.224Z,25.55
2023-05-10T00:27:37.866Z,23.65
2023-05-10T00:30:04.800Z,25.52
2023-05-10T00:32:31.561Z,24.87
2023-05-10T00:34:58.156Z,30.38
2023-05-10T00:37:24.721Z,26.30
2023-05-10T00:39:51.371Z,29.88
2023-05-10T00:42:17.886Z,34.78
2023-05-10T00:44:44.573Z,32.20
2023-05-10T00:47:11.822Z,37.35
2023-05-10T00:49:38.565Z,37.25
2023-05-10T00:52:05.455Z,43.33
2023-05-10T00:54:31.985Z,39.28
2023-05-10T00:56:58.506Z,47.23
2023-05-10T00:59:25.398Z,43.97
2023-05-10T01:01:52.956Z,44.00
2023-05-10T01:04:21.069Z,46.17
2023-05-10T01:06:47.559Z,44.75
2023-05-10T01:09:14.089Z,46.57
2023-05-10T01:11:41.118Z,46.15
2023-05-10T01:14:08.096Z,44.03
2023-05-10T01:16:43.253Z,41.72
2023-05-10T01:19:20.132Z,44.60
2023-05-10T01:21:57.474Z,41.80
2023-05-10T01:24:40.966Z,42.75
2023-05-10T01:27:21.148Z,40.90
2023-05-10T01:30:15.589Z,42.08
2023-05-10T01:33:23.767Z,43.97
2023-05-10T01:35:56.118Z,43.17
2023-05-10T01:38:31.458Z,43.10
2023-05-10T01:41:09.702Z,47.40
2023-05-10T01:43:49.585Z,43.47
2023-05-10T01:46:21.576Z,42.90
2023-05-10T01:48:52.493Z,46.97
2023-05-10T01:51:23.962Z,46.17
2023-05-10T01:53:55.244Z,44.53
2023-05-10T01:56:27.268Z,46.53
2023-05-10T01:58:56.299Z,47.67
2023-05-10T02:01:23.559Z,47.20
2023-05-10T02:03:52.727Z,46.60
2023-05-10T02:06:21.906Z,45.47
2023-05-10T02:08:50.761Z,46.85
2023-05-10T02:11:19.536Z,49.47
2023-05-10T02:13:48.366Z,45.37
2023-05-10T02:16:17.324Z,47.80
2023-05-10T02:18:44.630Z,45.80
2023-05-10T02:21:11.814Z,47.95
2023-05-10T02:23:38.686Z,49.22
2023-05-10T02:26:06.886Z,47.03
2023-05-10T02:28:35.884Z,47.63
2023-05-10T02:31:03.214Z,47.53
2023-05-10T02:33:31.261Z,49.28
2023-05-10T02:35:58.099Z,47.90
2023-05-10T02:38:26.739Z,52.07
2023-05-10T02:40:54.928Z,41.03
2023-05-10T02:43:24.328Z,46.65
2023-05-10T02:45:53.365Z,43.38
2023-05-10T02:48:20.983Z,43.38
2023-05-10T02:50:52.268Z,48.43
2023-05-10T02:53:37.737Z,44.40
2023-05-10T02:56:20.035Z,48.88
2023-05-10T02:58:47.188Z,45.55
2023-05-10T03:01:13.667Z,43.97
2023-05-10T03:03:40.226Z,49.20
2023-05-10T03:06:07.776Z,55.10
2023-05-10T03:08:34.920Z,52.92
2023-05-10T03:11:25.085Z,62.85
2023-05-10T03:14:28.766Z,66.68
2023-05-10T03:17:08.229Z,60.20
2023-05-10T03:19:50.729Z,55.88
2023-05-10T03:22:31.539Z,59.05
2023-05-10T03:24:59.374Z,55.70
2023-05-10T03:27:27.883Z,59.35
2023-05-10T03:29:55.832Z,54.80
2023-05-10T03:32:23.004Z,57.60
2023-05-10T03:34:49.534Z,62.45
2023-05-10T03:37:15.975Z,66.68
2023-05-10T03:39:42.578Z,64.57
2023-05-10T03:42:09.200Z,63.07
2023-05-10T03:44:35.695Z,63.20
2023-05-10T03:47:02.182Z,65.10
2023-05-10T03:49:28.722Z,59.15
2023-05-10T03:51:55.139Z,63.03
2023-05-10T03:54:22.460Z,61.47
2023-05-10T03:56:49.029Z,57.05
2023-05-10T03:59:15.518Z,59.42
2023-05-10T04:01:42.298Z,60.05
2023-05-10T04:04:08.869Z,69.75
2023-05-10T04:06:36.029Z,60.87
2023-05-10T04:09:05.097Z,66.55
2023-05-10T04:11:31.735Z,63.17
2023-05-10T04:13:58.119Z,61.67
2023-05-10T04:16:24.626Z,56.53
2023-05-10T04:18:51.500Z,64.37
2023-05-10T04:21:17.986Z,57.22
2023-05-10T04:23:44.529Z,64.68
2023-05-10T04:26:11.203Z,58.10
2023-05-10T04:28:37.650Z,69.35
2023-05-10T04:31:08.273Z,58.33
2023-05-10T04:33:35.451Z,57.70
2023-05-10T04:36:02.593Z,64.60
2023-05-10T04:38:29.506Z,56.53
2023-05-10T04:41:05.306Z,57.50
2023-05-10T04:43:31.894Z,54.57
2023-05-10T04:45:58.526Z,59.83
2023-05-10T04:48:24.941Z,63.13
2023-05-10T04:50:51.403Z,58.90
2023-05-10T04:53:17.745Z,56.45
2023-05-10T04:55:44.136Z,62.27
2023-05-10T04:58:10.557Z,61.88
2023-05-10T05:00:37.315Z,60.78
2023-05-10T05:03:04.380Z,66.63
2023-05-10T05:05:30.963Z,69.15
2023-05-10T05:07:57.680Z,62.73
2023-05-10T05:10:24.128Z,59.38
2023-05-10T05:12:50.800Z,59.90
2023-05-10T05:15:17.868Z,61.28
2023-05-10T05:17:44.860Z,60.08
2023-05-10T05:20:11.880Z,66.47
2023-05-10T05:22:38.654Z,60.22
2023-05-10T05:25:06.447Z,63.97
2023-05-10T05:27:33.822Z,69.03
2023-05-10T05:30:00.215Z,66.65
2023-05-10T05:32:26.919Z,63.93
2023-05-10T05:34:53.380Z,67.10
2023-05-10T05:37:22.423Z,56.55
2023-05-10T05:39:49.132Z,59.40
2023-05-10T05:42:17.433Z,61.75
2023-05-10T05:44:44.416Z,58.83
2023-05-10T05:47:11.574Z,56.47
2023-05-10T05:49:38.090Z,54.20
2023-05-10T05:52:05.445Z,56.63
2023-05-10T05:54:32.768Z,56.53
2023-05-10T05:57:01.409Z,55.23
2023-05-10T05:59:28.279Z,51.08
2023-05-10T06:01:54.900Z,57.70
2023-05-10T06:04:21.624Z,52.65
2023-05-10T06:06:48.089Z,53.47
2023-05-10T06:09:14.642Z,52.20
2023-05-10T06:11:41.532Z,49.78
2023-05-10T06:14:08.825Z,47.58
2023-05-10T06:16:35.881Z,47.08
2023-05-10T06:19:03.349Z,44.42
2023-05-10T06:21:29.948Z,43.13
2023-05-10T06:23:56.347Z,45.33
2023-05-10T06:26:22.756Z,45.42
2023-05-10T06:28:49.351Z,46.05
2023-05-10T06:31:16.122Z,43.90
2023-05-10T06:33:42.663Z,43.23
2023-05-10T06:36:09.203Z,44.67
2023-05-10T06:38:35.653Z,39.17
2023-05-10T06:41:02.042Z,44.33
2023-05-10T06:43:29.798Z,39.92
2023-05-10T06:45:56.961Z,36.40
2023-05-10T06:48:23.564Z,39.20
2023-05-10T06:50:50.289Z,34.10
2023-05-10T06:53:16.724Z,34.95
2023-05-10T06:55:43.164Z,36.20
2023-05-10T06:58:09.562Z,27.17
2023-05-10T07:00:36.329Z,22.50
2023-05-10T07:03:03.024Z,22.65
2023-05-10T07:05:30.491Z,21.17
2023-05-10T07:07:56.942Z,22.40
2023-05-10T07:10:23.451Z,21.53
2023-05-10T07:12:50.064Z,16.92
2023-05-10T07:15:17.130Z,15.18
2023-05-10T07:17:45.916Z,19.35
2023-05-10T07:20:13.119Z,20.63
2023-05-10T07:22:39.643Z,18.67
2023-05-10T07:25:06.785Z,18.63
2023-05-10T07:27:33.557Z,16.25
2023-05-10T07:30:00.249Z,17.58
2023-05-10T07:32:26.838Z,16.23
2023-05-10T07:34:53.289Z,13.00
2023-05-10T07:37:19.763Z,17.52
2023-05-10T07:39:46.226Z,16.27
2023-05-10T07:42:12.655Z,16.70
2023-05-10T07:44:39.217Z,16.65
2023-05-10T07:47:05.595Z,16.70
2023-05-10T07:49:32.189Z,16.75
2023-05-10T07:51:58.669Z,19.25
2023-05-10T07:54:25.102Z,18.35
2023-05-10T07:56:52.053Z,15.68
2023-05-10T07:59:18.791Z,16.50
2023-05-10T08:01:46.024Z,15.02
2023-05-10T08:04:12.735Z,15.98
2023-05-10T08:06:40.052Z,12.52
2023-05-10T08:09:06.487Z,13.40
2023-05-10T08:11:34.865Z,15.30
2023-05-10T08:14:01.470Z,12.80
2023-05-10T08:16:28.549Z,14.35
2023-05-10T08:18:56.332Z,15.52
2023-05-10T08:21:23.020Z,13.45
2023-05-10T08:23:50.125Z,14.63
2023-05-10T08:26:16.625Z,13.52
2023-05-10T08:28:43.166Z,13.00
2023-05-10T08:31:09.679Z,15.93
2023-05-10T08:33:36.040Z,17.13
2023-05-10T08:36:02.450Z,17.03
2023-05-10T08:38:28.969Z,16.27
2023-05-10T08:41:00.077Z,14.73
2023-05-10T08:43:30.941Z,12.57
2023-05-10T08:46:00.973Z,19.60
2023-05-10T08:48:30.518Z,17.87
2023-05-10T08:51:00.952Z,16.25
2023-05-10T08:53:28.264Z,19.23
2023-05-10T08:55:55.450Z,15.93
2023-05-10T08:58:22.187Z,12.52
2023-05-10T09:00:51.912Z,15.37
2023-05-10T09:03:18.943Z,15.32
2023-05-10T09:05:46.111Z,13.15
2023-05-10T09:08:13.911Z,12.82
2023-05-10T09:10:43.213Z,13.48
2023-05-10T09:13:11.891Z,11.97
2023-05-10T09:15:40.514Z,12.18
2023-05-10T09:18:07.231Z,11.27
2023-05-10T09:20:33.927Z,9.23
2023-05-10T09:23:00.484Z,10.18
2023-05-10T09:25:26.915Z,6.00
2023-05-10T09:27:53.727Z,8.10
2023-05-10T09:30:28.272Z,7.60
2023-05-10T09:32:56.206Z,6.18
2023-05-10T09:35:28.009Z,5.50
2023-05-10T09:37:59.031Z,4.93
2023-05-10T09:40:27.140Z,6.28
2023-05-10T09:42:55.536Z,6.63
2023-05-10T09:45:26.231Z,4.57
2023-05-10T09:47:53.026Z,5.85
2023-05-10T09:50:20.537Z,5.07
2023-05-10T09:53:01.237Z,4.70
2023-05-10T09:55:36.742Z,5.68
2023-05-10T09:58:03.393Z,6.18
2023-05-10T10:00:36.371Z,7.00
2023-05-10T10:03:04.414Z,5.60
2023-05-10T10:05:31.825Z,7.00
2023-05-10T10:07:59.468Z,5.50
2023-05-10T10:10:29.582Z,6.88
2023-05-10T10:12:56.526Z,9.48
2023-05-10T10:15:24.057Z,7.33
2023-05-10T10:17:52.382Z,7.93
2023-05-10T10:20:21.141Z,8.40
2023-05-10T10:22:48.339Z,7.32
2023-05-10T10:25:17.220Z,8.02
2023-05-10T10:27:52.974Z,7.90
2023-05-10T10:30:28.636Z,8.30
2023-05-10T10:33:13.327Z,7.72
2023-05-10T10:35:47.941Z,6.40
2023-05-10T10:38:14.824Z,5.53
2023-05-10T10:40:41.836Z,7.80
2023-05-10T10:43:28.470Z,7.70
2023-05-10T10:46:18.432Z,8.52
2023-05-10T10:48:50.905Z,8.52
2023-05-10T10:51:17.581Z,7.03
2023-05-10T10:53:44.599Z,7.40
2023-05-10T10:56:14.608Z,7.93
2023-05-10T10:58:41.772Z,7.75
2023-05-10T11:01:13.496Z,7.05
2023-05-10T11:03:40.748Z,8.05
2023-05-10T11:06:08.919Z,6.97
2023-05-10T11:08:44.428Z,6.70
2023-05-10T11:11:15.130Z,5.93
2023-05-10T11:13:43.056Z,6.85
2023-05-10T11:16:28.027Z,7.00
2023-05-10T11:18:57.505Z,9.43
2023-05-10T11:21:24.157Z,5.68
2023-05-10T11:23:56.897Z,7.10
2023-05-10T11:26:31.559Z,7.00
2023-05-10T11:28:59.446Z,11.32
2023-05-10T11:31:27.901Z,6.90
2023-05-10T11:33:59.355Z,8.18
2023-05-10T11:36:28.833Z,7.63
2023-05-10T11:38:56.840Z,10.50
2023-05-10T11:41:25.466Z,6.70
2023-05-10T11:43:54.116Z,6.87
2023-05-10T11:46:23.073Z,6.15
2023-05-10T11:49:01.339Z,7.30
2023-05-10T11:51:28.207Z,4.68
2023-05-10T11:53:56.944Z,6.05
2023-05-10T11:56:24.533Z,5.77
2023-05-10T11:58:58.654Z,6.35
2023-05-10T12:01:27.583Z,5.90
2023-05-10T12:04:00.758Z,4.75
2023-05-10T12:06:29.793Z,6.35
2023-05-10T12:08:56.298Z,5.50
2023-05-10T12:11:26.647Z,5.75
2023-05-10T12:13:54.086Z,4.22
2023-05-10T12:16:23.139Z,6.13
2023-05-10T12:18:51.939Z,4.32
2023-05-10T12:21:20.509Z,3.83
2023-05-10T12:23:55.052Z,4.90
2023-05-10T12:26:27.333Z,4.72
2023-05-10T12:29:19.265Z,7.10
2023-05-10T12:31:54.833Z,4.05
2023-05-10T12:34:28.337Z,3.90
2023-05-10T12:36:55.757Z,4.13
2023-05-10T12:39:22.452Z,3.97
2023-05-10T12:41:49.092Z,4.20
2023-05-10T12:44:15.747Z,3.58
2023-05-10T12:46:42.197Z,3.63
2023-05-10T12:49:09.734Z,4.50
2023-05-10T12:51:36.424Z,2.60
2023-05-10T12:54:04.598Z,3.55
2023-05-10T12:56:31.114Z,3.72
2023-05-10T12:58:58.947Z,2.40
2023-05-10T13:01:25.504Z,3.88
2023-05-10T13:03:52.092Z,3.05
2023-05-10T13:06:18.763Z,3.60
2023-05-10T13:08:45.402Z,4.18
2023-05-10T13:11:12.097Z,4.23
2023-05-10T13:13:38.513Z,3.38
2023-05-10T13:16:05.452Z,3.63
2023-05-10T13:18:32.024Z,3.20
2023-05-10T13:20:58.469Z,4.40
2023-05-10T13:23:25.024Z,6.07
2023-05-10T13:25:51.560Z,5.63
2023-05-10T13:28:17.904Z,5.97
2023-05-10T13:30:44.594Z,7.13
2023-05-10T13:33:11.064Z,7.25
2023-05-10T13:35:37.448Z,8.00
2023-05-10T13:38:04.098Z,8.50
2023-05-10T13:40:30.617Z,8.60
2023-05-10T13:42:57.080Z,8.75
2023-05-10T13:45:23.591Z,8.27
2023-05-10T13:47:50.304Z,7.33
2023-05-10T13:50:16.934Z,8.82
2023-05-10T13:52:43.449Z,8.90
2023-05-10T13:55:09.844Z,10.10
2023-05-10T13:57:36.912Z,9.88
2023-05-10T14:00:03.663Z,7.97
2023-05-10T14:02:30.688Z,9.77
2023-05-10T14:04:57.113Z,11.48
2023-05-10T14:07:23.544Z,8.75
2023-05-10T14:09:50.188Z,8.50
2023-05-10T14:12:17.312Z,7.37
2023-05-10T14:14:43.798Z,10.10
2023-05-10T14:17:12.133Z,8.20
2023-05-10T14:19:39.753Z,9.45
2023-05-10T14:22:06.485Z,8.52
2023-05-10T14:24:33.352Z,9.73
2023-05-10T14:26:59.941Z,9.15
2023-05-10T14:29:26.663Z,11.45
2023-05-10T14:31:53.282Z,12.95
2023-05-10T14:34:19.682Z,10.50
2023-05-10T14:36:46.261Z,10.53
2023-05-10T14:39:14.333Z,10.63
2023-05-10T14:41:45.466Z,9.35
2023-05-10T14:44:12.026Z,10.98
2023-05-10T14:46:39.174Z,11.50
2023-05-10T14:49:05.946Z,9.23
2023-05-10T14:51:32.793Z,9.98
2023-05-10T14:53:59.415Z,12.50
2023-05-10T14:56:26.821Z,11.63
2023-05-10T14:58:53.266Z,11.13
2023-05-10T15:01:20.144Z,13.03
2023-05-10T15:03:46.927Z,9.98
2023-05-10T15:06:15.793Z,13.68
2023-05-10T15:08:42.599Z,10.32
2023-05-10T15:11:09.050Z,10.35
2023-05-10T15:13:35.811Z,11.93
2023-05-10T15:16:02.322Z,10.18
2023-05-10T15:18:29.016Z,11.00
2023-05-10T15:20:56.205Z,9.80
2023-05-10T15:23:22.618Z,12.95
2023-05-10T15:25:50.708Z,10.07
2023-05-10T15:28:17.190Z,9.98
2023-05-10T15:30:43.594Z,11.45
2023-05-10T15:33:09.999Z,10.98
2023-05-10T15:35:39.211Z,10.88
2023-05-10T15:38:05.655Z,10.60
2023-05-10T15:40:32.463Z,9.18
2023-05-10T15:42:58.910Z,9.13
2023-05-10T15:45:25.572Z,9.77
2023-05-10T15:47:52.329Z,9.73
2023-05-10T15:50:18.933Z,8.13
2023-05-10T15:52:45.474Z,8.13
2023-05-10T15:55:14.927Z,7.55
2023-05-10T15:57:42.827Z,6.28
2023-05-10T16:00:10.632Z,7.35
2023-05-10T16:02:37.422Z,7.03
2023-05-10T16:05:04.651Z,7.18
2023-05-10T16:07:31.107Z,9.07
2023-05-10T16:09:57.482Z,6.80
2023-05-10T16:12:24.081Z,9.65
2023-05-10T16:14:50.669Z,8.13
2023-05-10T16:17:17.389Z,8.93
2023-05-10T16:19:43.894Z,8.05
2023-05-10T16:22:10.316Z,8.25
2023-05-10T16:24:36.956Z,7.88
2023-05-10T16:27:03.527Z,9.00
2023-05-10T16:29:29.956Z,8.45
2023-05-10T16:31:56.527Z,10.88
2023-05-10T16:34:24.308Z,7.68
2023-05-10T16:36:51.596Z,7.30
2023-05-10T16:39:18.013Z,9.17
2023-05-10T16:41:45.116Z,8.68
2023-05-10T16:44:11.675Z,8.32
2023-05-10T16:46:38.126Z,10.07
2023-05-10T16:49:06.844Z,14.48
2023-05-10T16:51:33.244Z,7.63
2023-05-10T16:53:59.863Z,7.25
2023-05-10T16:56:26.769Z,7.70
2023-05-10T16:58:54.078Z,7.25
2023-05-10T17:01:21.212Z,6.80
2023-05-10T17:03:48.238Z,6.67
2023-05-10T17:06:14.830Z,6.05
2023-05-10T17:08:41.423Z,7.05
2023-05-10T17:11:07.774Z,5.00
2023-05-10T17:13:34.255Z,5.35
2023-05-10T17:16:03.514Z,6.10
2023-05-10T17:18:30.679Z,4.53
2023-05-10T17:20:57.109Z,4.88
2023-05-10T17:23:23.496Z,4.47
2023-05-10T17:25:49.863Z,4.07
2023-05-10T17:28:16.223Z,5.43
2023-05-10T17:30:42.614Z,5.50
2023-05-10T17:33:09.231Z,6.55
2023-05-10T17:35:35.737Z,5.22
2023-05-10T17:38:02.576Z,4.18
2023-05-10T17:40:29.374Z,3.83
2023-05-10T17:42:55.956Z,4.45
2023-05-10T17:45:22.796Z,5.57
2023-05-10T17:47:49.254Z,6.18
2023-05-10T17:50:15.850Z,6.82
2023-05-10T17:52:42.370Z,6.33
2023-05-10T17:55:09.011Z,6.72
2023-05-10T17:57:38.037Z,6.90
2023-05-10T18:00:06.441Z,5.47
2023-05-10T18:02:32.876Z,7.57
2023-05-10T18:05:01.334Z,7.80
2023-05-10T18:07:29.883Z,8.32
2023-05-10T18:09:57.859Z,7.05
2023-05-10T18:12:24.894Z,9.05
2023-05-10T18:14:51.696Z,5.90
2023-05-10T18:17:18.343Z,9.53
2023-05-10T18:19:44.741Z,10.30
2023-05-10T18:22:11.343Z,7.30
2023-05-10T18:24:39.502Z,7.25
2023-05-10T18:27:08.332Z,7.57
2023-05-10T18:29:35.131Z,10.37
2023-05-10T18:32:01.543Z,7.30
2023-05-10T18:34:28.742Z,8.40
2023-05-10T18:36:55.818Z,10.25
2023-05-10T18:39:22.217Z,6.97
2023-05-10T18:41:50.146Z,7.73
2023-05-10T18:44:16.700Z,8.88
2023-05-10T18:46:43.492Z,9.65
2023-05-10T18:49:10.252Z,11.07
2023-05-10T18:51:36.698Z,9.27
2023-05-10T18:54:03.454Z,8.70
2023-05-10T18:56:29.834Z,12.93
2023-05-10T18:58:56.493Z,9.15
2023-05-10T19:01:22.922Z,9.15
2023-05-10T19:03:49.343Z,9.13
2023-05-10T19:06:15.798Z,13.90
2023-05-10T19:08:42.269Z,8.70
2023-05-10T19:11:08.726Z,8.43
2023-05-10T19:13:35.354Z,9.07
2023-05-10T19:16:06.904Z,10.50
2023-05-10T19:18:34.120Z,9.07
2023-05-10T19:21:04.451Z,12.73
2023-05-10T19:23:34.577Z,10.57
2023-05-10T19:26:01.216Z,12.05
2023-05-10T19:28:28.725Z,10.73
2023-05-10T19:30:55.334Z,13.40
2023-05-10T19:33:21.790Z,8.88
2023-05-10T19:35:52.022Z,12.25
2023-05-10T19:38:25.563Z,12.73
2023-05-10T19:40:57.626Z,12.73
2023-05-10T19:43:28.310Z,12.60
2023-05-10T19:45:58.145Z,12.65
2023-05-10T19:48:25.068Z,11.73
2023-05-10T19:50:52.632Z,10.93
2023-05-10T19:53:19.394Z,13.90
2023-05-10T19:55:46.217Z,13.57
2023-05-10T19:58:12.561Z,14.65
2023-05-10T20:00:39.031Z,11.07
2023-05-10T20:03:07.038Z,12.30
2023-05-10T20:05:35.549Z,12.25
2023-05-10T20:08:01.991Z,13.07
2023-05-10T20:10:28.675Z,10.55
2023-05-10T20:12:55.284Z,12.85
2023-05-10T20:15:23.104Z,12.05
2023-05-10T20:17:51.939Z,12.95
2023-05-10T20:20:20.339Z,11.80
2023-05-10T20:22:47.949Z,12.70
2023-05-10T20:25:14.632Z,13.63
2023-05-10T20:27:41.108Z,10.32
2023-05-10T20:30:08.300Z,12.18
2023-05-10T20:32:35.381Z,11.00
2023-05-10T20:35:02.096Z,13.32
2023-05-10T20:37:28.682Z,10.50
2023-05-10T20:39:55.481Z,12.73
2023-05-10T20:42:22.377Z,13.82
2023-05-10T20:44:49.800Z,12.17
2023-05-10T20:47:16.855Z,13.57
2023-05-10T20:49:43.688Z,13.23
2023-05-10T20:52:10.301Z,15.68
2023-05-10T20:54:36.843Z,17.13
2023-05-10T20:57:03.378Z,17.07
2023-05-10T20:59:29.853Z,17.75
2023-05-10T21:01:57.519Z,15.38
2023-05-10T21:04:25.436Z,15.43
2023-05-10T21:06:52.329Z,12.73
2023-05-10T21:09:18.968Z,11.80
2023-05-10T21:11:45.492Z,12.65
2023-05-10T21:14:11.893Z,12.25
2023-05-10T21:16:38.684Z,13.88
2023-05-10T21:19:07.140Z,12.20
2023-05-10T21:21:34.009Z,12.70
2023-05-10T21:24:00.563Z,14.95
2023-05-10T21:26:27.180Z,12.95
2023-05-10T21:28:53.723Z,14.77
2023-05-10T21:31:20.327Z,12.68
2023-05-10T21:33:47.053Z,15.10
2023-05-10T21:36:13.848Z,12.20
2023-05-10T21:38:41.053Z,13.43
2023-05-10T21:41:08.175Z,12.50
2023-05-10T21:43:34.756Z,15.07
2023-05-10T21:46:01.615Z,13.50
2023-05-10T21:48:28.309Z,15.18
2023-05-10T21:50:54.851Z,12.95
2023-05-10T21:53:22.295Z,12.10
2023-05-10T21:55:49.688Z,12.93
2023-05-10T21:58:16.507Z,13.67
2023-05-10T22:00:43.241Z,12.57
2023-05-10T22:03:09.767Z,11.77
2023-05-10T22:05:36.313Z,12.52
2023-05-10T22:08:02.881Z,15.80
2023-05-10T22:10:29.503Z,13.57
2023-05-10T22:12:56.011Z,14.60
2023-05-10T22:15:22.691Z,11.20
2023-05-10T22:17:49.101Z,14.10
2023-05-10T22:20:15.894Z,13.15
2023-05-10T22:22:42.516Z,11.87
2023-05-10T22:25:09.447Z,12.35
2023-05-10T22:27:36.198Z,11.93
2023-05-10T22:30:04.559Z,13.23
2023-05-10T22:32:31.900Z,11.95
2023-05-10T22:34:58.576Z,13.00
2023-05-10T22:37:25.070Z,11.68
2023-05-10T22:39:51.588Z,12.40
2023-05-10T22:42:18.341Z,12.80
2023-05-10T22:44:44.799Z,14.25
2023-05-10T22:47:11.502Z,11.77
2023-05-10T22:49:38.355Z,14.88
2023-05-10T22:52:04.758Z,11.57
2023-05-10T22:54:31.225Z,12.07
2023-05-10T22:56:57.914Z,16.75
2023-05-10T22:59:24.324Z,13.10
2023-05-10T23:01:51.041Z,13.82
2023-05-10T23:04:18.013Z,11.75
2023-05-10T23:06:45.563Z,15.23
2023-05-10T23:09:12.178Z,13.85
2023-05-10T23:11:38.566Z,17.63
2023-05-10T23:14:04.967Z,13.60
2023-05-10T23:16:31.709Z,16.95
2023-05-10T23:18:58.364Z,16.92
2023-05-10T23:21:25.371Z,15.32
2023-05-10T23:23:52.579Z,11.83
2023-05-10T23:26:19.199Z,15.55
2023-05-10T23:28:45.591Z,15.90
2023-05-10T23:31:12.013Z,17.10
2023-05-10T23:33:38.682Z,17.90
2023-05-10T23:36:05.638Z,17.20
2023-05-10T23:38:32.094Z,19.35
2023-05-10T23:40:59.557Z,16.05
2023-05-10T23:43:26.067Z,16.52
2023-05-10T23:45:54.328Z,19.20
2023-05-10T23:48:20.863Z,20.67
2023-05-10T23:50:47.410Z,18.73
2023-05-10T23:53:13.852Z,16.55
2023-05-10T23:55:40.215Z,14.88
2023-05-10T23:58:06.946Z,22.30
